Taha, China
Current Conditions -  °F | °C
As of 8:00 PM on Monday 26 Jan 2015 (Local Time) from ZYHB Reporting Station
Clear Clear  
Wind Chill: -14°   Ceiling: Unl
Heat Index: -4°   Visibility: 5mi
Dew Point: -15°   Wind: 4mph
Humidity: 60%   Direction: 230°SW
Pressure: 30.33"   Gusts: NA
Location:  47.56°N, 124.22°E
Report Text: ZYHB 261200Z 23002MPS 8000 NSC M20/M26 Q1027 NOSIG
Loading
Personal Weather Stations






























Interactive Weather Map New forecast layout! Learn more

10-Day Weather Forecast

Advertisements
Track Severe Weather on mobile